createdAt,value
2019-02-02T00:02:25.929Z,10.60
2019-02-02T00:04:52.144Z,10.43
2019-02-02T00:07:18.321Z,10.64
2019-02-02T00:09:44.481Z,10.64
2019-02-02T00:12:10.773Z,10.55
2019-02-02T00:14:36.929Z,10.52
2019-02-02T00:17:03.187Z,10.42
2019-02-02T00:19:29.482Z,10.37
2019-02-02T00:21:55.643Z,10.33
2019-02-02T00:24:21.914Z,10.31
2019-02-02T00:26:48.213Z,10.27
2019-02-02T00:29:14.376Z,10.11
2019-02-02T00:31:40.644Z,10.28
2019-02-02T00:34:06.836Z,10.23
2019-02-02T00:36:33.000Z,10.22
2019-02-02T00:38:59.163Z,10.07
2019-02-02T00:41:25.448Z,10.00
2019-02-02T00:43:51.601Z,9.96
2019-02-02T00:46:17.879Z,9.95
2019-02-02T00:48:44.082Z,9.95
2019-02-02T00:51:10.342Z,9.96
2019-02-02T00:53:36.526Z,10.02
2019-02-02T00:56:03.424Z,9.84
2019-02-02T00:58:29.678Z,9.82
2019-02-02T01:00:55.849Z,9.81
2019-02-02T01:03:22.058Z,9.79
2019-02-02T01:05:48.320Z,9.83
2019-02-02T01:08:14.690Z,10.01
2019-02-02T01:10:42.088Z,9.92
2019-02-02T01:13:08.251Z,9.86
2019-02-02T01:15:34.515Z,9.94
2019-02-02T01:18:00.845Z,9.85
2019-02-02T01:20:27.716Z,9.99
2019-02-02T01:22:53.876Z,9.97
2019-02-02T01:25:20.293Z,10.12
2019-02-02T01:27:46.560Z,10.16
2019-02-02T01:30:16.508Z,10.24
2019-02-02T01:32:42.853Z,10.37
2019-02-02T01:35:11.824Z,10.46
2019-02-02T01:37:38.176Z,10.46
2019-02-02T01:40:07.968Z,10.38
2019-02-02T01:42:34.241Z,10.28
2019-02-02T01:45:00.809Z,10.24
2019-02-02T01:47:27.108Z,10.17
2019-02-02T01:49:53.387Z,10.08
2019-02-02T01:52:19.541Z,9.98
2019-02-02T01:54:45.728Z,10.05
2019-02-02T01:57:12.001Z,10.07
2019-02-02T01:59:38.160Z,9.87
2019-02-02T02:02:04.361Z,9.80
2019-02-02T02:04:30.627Z,9.79
2019-02-02T02:06:56.799Z,9.90
2019-02-02T02:09:23.055Z,9.99
2019-02-02T02:11:49.317Z,9.86
2019-02-02T02:14:15.574Z,10.00
2019-02-02T02:16:41.811Z,9.77
2019-02-02T02:19:07.970Z,9.63
2019-02-02T02:21:34.165Z,9.66
2019-02-02T02:24:00.379Z,9.42
2019-02-02T02:26:26.644Z,9.18
2019-02-02T02:28:52.815Z,9.15
2019-02-02T02:31:19.017Z,9.19
2019-02-02T02:33:45.293Z,9.02
2019-02-02T02:36:11.528Z,9.14
2019-02-02T02:38:37.892Z,9.20
2019-02-02T02:41:04.019Z,9.16
2019-02-02T02:43:30.186Z,9.15
2019-02-02T02:45:56.382Z,9.22
2019-02-02T02:48:22.642Z,9.12
2019-02-02T02:50:48.917Z,9.16
2019-02-02T02:53:15.133Z,9.11
2019-02-02T02:55:41.297Z,9.07
2019-02-02T02:58:07.470Z,8.90
2019-02-02T03:00:33.770Z,8.98
2019-02-02T03:02:59.923Z,9.02
2019-02-02T03:05:26.089Z,9.05
2019-02-02T03:07:53.697Z,9.18
2019-02-02T03:10:25.133Z,9.19
2019-02-02T03:12:51.983Z,9.14
2019-02-02T03:15:18.762Z,9.12
2019-02-02T03:17:45.375Z,9.16
2019-02-02T03:20:13.641Z,9.24
2019-02-02T03:22:39.847Z,9.39
2019-02-02T03:25:12.193Z,9.45
2019-02-02T03:27:38.457Z,9.24
2019-02-02T03:30:08.380Z,9.13
2019-02-02T03:32:34.557Z,9.18
2019-02-02T03:35:00.809Z,9.25
2019-02-02T03:37:27.019Z,9.15
2019-02-02T03:39:53.301Z,9.08
2019-02-02T03:42:19.565Z,9.17
2019-02-02T03:44:45.761Z,9.12
2019-02-02T03:47:11.948Z,9.23
2019-02-02T03:49:38.215Z,9.24
2019-02-02T03:52:04.511Z,9.51
2019-02-02T03:54:30.675Z,9.48
2019-02-02T03:56:56.940Z,9.57
2019-02-02T03:59:23.149Z,9.48
2019-02-02T04:01:49.415Z,9.69
2019-02-02T04:04:15.576Z,9.71
2019-02-02T04:06:41.769Z,9.87
2019-02-02T04:09:07.941Z,9.83
2019-02-02T04:11:36.089Z,9.82
2019-02-02T04:14:02.397Z,9.83
2019-02-02T04:16:28.553Z,9.78
2019-02-02T04:18:54.723Z,9.77
2019-02-02T04:21:21.030Z,9.81
2019-02-02T04:23:47.294Z,9.76
2019-02-02T04:26:13.552Z,9.92
2019-02-02T04:28:39.841Z,9.96
2019-02-02T04:31:06.105Z,10.08
2019-02-02T04:33:32.373Z,10.03
2019-02-02T04:35:58.566Z,9.95
2019-02-02T04:38:24.727Z,9.93
2019-02-02T04:40:50.889Z,10.15
2019-02-02T04:43:17.190Z,10.30
2019-02-02T04:45:43.597Z,10.21
2019-02-02T04:48:09.848Z,10.19
2019-02-02T04:50:36.050Z,10.09
2019-02-02T04:53:02.209Z,9.56
2019-02-02T04:55:28.471Z,9.99
2019-02-02T04:57:54.665Z,9.82
2019-02-02T05:00:25.372Z,10.28
2019-02-02T05:02:51.643Z,10.09
2019-02-02T05:05:17.844Z,9.70
2019-02-02T05:07:44.133Z,9.81
2019-02-02T05:10:23.546Z,9.70
2019-02-02T05:12:50.514Z,9.83
2019-02-02T05:15:16.779Z,9.52
2019-02-02T05:17:43.095Z,9.90
2019-02-02T05:20:14.513Z,10.06
2019-02-02T05:22:40.684Z,10.33
2019-02-02T05:25:07.990Z,9.58
2019-02-02T05:27:34.254Z,10.01
2019-02-02T05:30:00.560Z,9.94
2019-02-02T05:32:26.914Z,9.86
2019-02-02T05:34:53.079Z,10.17
2019-02-02T05:37:19.249Z,10.20
2019-02-02T05:39:45.564Z,10.47
2019-02-02T05:42:11.722Z,10.71
2019-02-02T05:44:37.900Z,10.51
2019-02-02T05:47:04.107Z,10.30
2019-02-02T05:49:30.366Z,10.16
2019-02-02T05:51:56.640Z,10.11
2019-02-02T05:54:22.850Z,10.23
2019-02-02T05:56:49.017Z,10.28
2019-02-02T05:59:15.175Z,9.87
2019-02-02T06:01:41.466Z,9.94
2019-02-02T06:04:07.624Z,9.89
2019-02-02T06:06:33.835Z,10.13
2019-02-02T06:09:00.146Z,10.28
2019-02-02T06:11:26.429Z,10.50
2019-02-02T06:13:52.752Z,10.69
2019-02-02T06:16:18.940Z,10.76
2019-02-02T06:18:45.203Z,11.08
2019-02-02T06:21:11.371Z,11.17
2019-02-02T06:23:37.556Z,11.30
2019-02-02T06:26:03.822Z,12.00
2019-02-02T06:28:29.994Z,13.02
2019-02-02T06:30:56.208Z,13.79
2019-02-02T06:33:22.365Z,12.67
2019-02-02T06:35:48.523Z,12.94
2019-02-02T06:38:14.721Z,13.07
2019-02-02T06:40:40.895Z,12.63
2019-02-02T06:43:07.084Z,12.88
2019-02-02T06:45:35.181Z,13.14
2019-02-02T06:48:01.456Z,13.12
2019-02-02T06:50:27.735Z,12.91
2019-02-02T06:52:54.050Z,13.21
2019-02-02T06:55:20.331Z,12.96
2019-02-02T06:57:46.613Z,12.95
2019-02-02T07:00:16.501Z,13.22
2019-02-02T07:02:42.710Z,13.68
2019-02-02T07:05:09.004Z,14.01
2019-02-02T07:07:35.321Z,14.86
2019-02-02T07:10:02.190Z,15.71
2019-02-02T07:12:28.358Z,16.52
2019-02-02T07:14:54.763Z,16.90
2019-02-02T07:17:21.044Z,17.02
2019-02-02T07:19:47.332Z,16.46
2019-02-02T07:22:13.523Z,16.07
2019-02-02T07:24:39.689Z,16.53
2019-02-02T07:27:05.858Z,17.07
2019-02-02T07:29:32.047Z,17.69
2019-02-02T07:31:58.205Z,17.89
2019-02-02T07:34:24.386Z,18.21
2019-02-02T07:36:50.688Z,18.56
2019-02-02T07:39:16.952Z,18.12
2019-02-02T07:41:43.113Z,18.17
2019-02-02T07:44:09.311Z,18.54
2019-02-02T07:46:35.874Z,18.50
2019-02-02T07:49:02.133Z,18.21
2019-02-02T07:51:28.333Z,18.69
2019-02-02T07:53:54.587Z,19.16
2019-02-02T07:56:20.739Z,19.13
2019-02-02T07:58:47.042Z,18.56
2019-02-02T08:01:13.194Z,18.62
2019-02-02T08:03:39.360Z,17.97
2019-02-02T08:06:05.571Z,18.27
2019-02-02T08:08:31.838Z,18.65
2019-02-02T08:10:58.023Z,19.38
2019-02-02T08:13:24.204Z,18.78
2019-02-02T08:15:50.412Z,19.28
2019-02-02T08:18:16.563Z,18.79
2019-02-02T08:20:42.790Z,19.92
2019-02-02T08:23:08.955Z,20.81
2019-02-02T08:25:35.113Z,20.93
2019-02-02T08:28:01.298Z,21.07
2019-02-02T08:30:29.658Z,21.56
2019-02-02T08:32:55.930Z,21.16
2019-02-02T08:35:22.132Z,20.93
2019-02-02T08:37:48.300Z,20.55
2019-02-02T08:40:16.668Z,20.87
2019-02-02T08:42:42.865Z,20.69
2019-02-02T08:45:10.519Z,20.66
2019-02-02T08:47:36.684Z,21.07
2019-02-02T08:50:06.581Z,20.65
2019-02-02T08:52:32.748Z,20.52
2019-02-02T08:54:58.925Z,20.38
2019-02-02T08:57:25.209Z,20.57
2019-02-02T08:59:51.625Z,20.18
2019-02-02T09:02:17.786Z,20.43
2019-02-02T09:04:44.115Z,20.46
2019-02-02T09:07:10.343Z,20.16
2019-02-02T09:09:36.601Z,20.74
2019-02-02T09:12:03.305Z,21.14
2019-02-02T09:14:29.485Z,20.72
2019-02-02T09:16:55.677Z,21.01
2019-02-02T09:19:21.879Z,21.37
2019-02-02T09:21:48.036Z,22.37
2019-02-02T09:24:14.189Z,22.50
2019-02-02T09:26:40.489Z,22.59
2019-02-02T09:29:06.646Z,23.10
2019-02-02T09:31:32.802Z,23.19
2019-02-02T09:33:58.988Z,22.53
2019-02-02T09:36:25.144Z,21.10
2019-02-02T09:38:51.303Z,21.11
2019-02-02T09:41:17.508Z,20.98
2019-02-02T09:43:43.779Z,21.08
2019-02-02T09:46:09.940Z,19.78
2019-02-02T09:48:36.129Z,21.25
2019-02-02T09:51:02.407Z,22.22
2019-02-02T09:53:28.567Z,20.53
2019-02-02T09:55:54.748Z,20.40
2019-02-02T09:58:21.244Z,21.41
2019-02-02T10:00:47.511Z,21.05
2019-02-02T10:03:13.805Z,22.62
2019-02-02T10:05:40.084Z,23.23
2019-02-02T10:08:06.236Z,23.09
2019-02-02T10:10:33.645Z,23.82
2019-02-02T10:12:59.794Z,23.92
2019-02-02T10:15:25.947Z,24.40
2019-02-02T10:17:53.177Z,24.07
2019-02-02T10:20:43.672Z,24.51
2019-02-02T10:23:09.881Z,24.80
2019-02-02T10:25:36.042Z,23.78
2019-02-02T10:28:02.612Z,22.42
2019-02-02T10:30:34.615Z,22.19
2019-02-02T10:33:00.876Z,22.71
2019-02-02T10:35:27.248Z,22.56
2019-02-02T10:37:53.744Z,23.60
2019-02-02T10:40:19.898Z,24.69
2019-02-02T10:42:46.057Z,24.75
2019-02-02T10:45:14.161Z,25.29
2019-02-02T10:47:42.869Z,24.66
2019-02-02T10:50:14.427Z,23.88
2019-02-02T10:52:40.618Z,23.61
2019-02-02T10:55:09.683Z,23.98
2019-02-02T10:57:35.833Z,25.03
2019-02-02T11:00:04.247Z,25.70
2019-02-02T11:02:30.408Z,26.06
2019-02-02T11:04:56.729Z,26.05
2019-02-02T11:07:23.249Z,26.58
2019-02-02T11:09:49.381Z,26.53
2019-02-02T11:12:15.535Z,25.89
2019-02-02T11:14:41.845Z,25.59
2019-02-02T11:17:08.071Z,25.59
2019-02-02T11:19:34.379Z,26.26
2019-02-02T11:22:00.573Z,26.49
2019-02-02T11:24:26.989Z,26.30
2019-02-02T11:26:53.435Z,26.17
2019-02-02T11:29:19.809Z,26.36
2019-02-02T11:31:45.988Z,26.38
2019-02-02T11:34:12.265Z,25.79
2019-02-02T11:36:38.562Z,25.57
2019-02-02T11:39:05.424Z,25.30
2019-02-02T11:41:31.587Z,25.06
2019-02-02T11:43:57.790Z,25.09
2019-02-02T11:46:23.945Z,25.90
2019-02-02T11:48:50.100Z,26.67
2019-02-02T11:51:16.397Z,27.62
2019-02-02T11:53:42.655Z,27.84
2019-02-02T11:56:08.922Z,29.03
2019-02-02T11:58:35.113Z,28.93
2019-02-02T12:01:01.373Z,29.39
2019-02-02T12:03:27.692Z,28.62
2019-02-02T12:05:53.889Z,28.97
2019-02-02T12:08:20.100Z,27.62
2019-02-02T12:10:46.299Z,27.45
2019-02-02T12:13:12.496Z,26.50
2019-02-02T12:15:38.754Z,25.38
2019-02-02T12:18:04.925Z,25.16
2019-02-02T12:20:33.120Z,25.29
2019-02-02T12:22:59.222Z,24.61
2019-02-02T12:25:25.375Z,24.66
2019-02-02T12:27:51.588Z,24.67
2019-02-02T12:30:20.347Z,24.94
2019-02-02T12:32:46.496Z,24.98
2019-02-02T12:35:21.069Z,25.76
2019-02-02T12:37:47.230Z,25.86
2019-02-02T12:40:15.984Z,25.94
2019-02-02T12:42:42.177Z,26.06
2019-02-02T12:45:11.650Z,25.54
2019-02-02T12:47:37.810Z,25.14
2019-02-02T12:50:07.500Z,25.23
2019-02-02T12:52:33.663Z,25.52
2019-02-02T12:54:59.818Z,25.42
2019-02-02T12:57:26.157Z,25.02
2019-02-02T12:59:52.322Z,24.75
2019-02-02T13:02:18.478Z,24.72
2019-02-02T13:04:44.664Z,24.08
2019-02-02T13:07:10.831Z,23.89
2019-02-02T13:09:36.980Z,23.71
2019-02-02T13:12:03.276Z,23.18
2019-02-02T13:14:29.539Z,23.08
2019-02-02T13:16:55.687Z,23.73
2019-02-02T13:19:21.988Z,23.45
2019-02-02T13:21:48.164Z,23.48
2019-02-02T13:24:14.325Z,22.57
2019-02-02T13:26:40.509Z,22.19
2019-02-02T13:29:06.766Z,22.12
2019-02-02T13:31:32.937Z,22.62
2019-02-02T13:33:59.126Z,22.20
2019-02-02T13:36:25.296Z,22.10
2019-02-02T13:38:51.452Z,22.06
2019-02-02T13:41:17.645Z,22.09
2019-02-02T13:43:43.806Z,21.20
2019-02-02T13:46:09.967Z,21.71
2019-02-02T13:48:36.374Z,21.70
2019-02-02T13:51:05.840Z,21.51
2019-02-02T13:53:30.893Z,21.64
2019-02-02T13:55:57.097Z,21.02
2019-02-02T13:58:23.247Z,20.73
2019-02-02T14:00:49.408Z,21.10
2019-02-02T14:03:15.613Z,20.85
2019-02-02T14:05:41.767Z,20.34
2019-02-02T14:08:07.932Z,20.04
2019-02-02T14:10:34.231Z,20.21
2019-02-02T14:13:00.484Z,19.55
2019-02-02T14:15:26.747Z,19.68
2019-02-02T14:17:53.064Z,20.03
2019-02-02T14:20:19.317Z,20.22
2019-02-02T14:22:45.630Z,19.84
2019-02-02T14:25:13.733Z,19.88
2019-02-02T14:27:39.894Z,19.98
2019-02-02T14:30:09.747Z,19.44
2019-02-02T14:32:35.941Z,19.52
2019-02-02T14:35:02.997Z,19.81
2019-02-02T14:37:29.155Z,19.36
2019-02-02T14:39:55.354Z,18.89
2019-02-02T14:42:26.288Z,19.13
2019-02-02T14:44:52.442Z,19.23
2019-02-02T14:47:20.685Z,18.81
2019-02-02T14:49:46.848Z,18.62
2019-02-02T14:52:13.025Z,19.04
2019-02-02T14:54:39.237Z,18.51
2019-02-02T14:57:05.409Z,18.67
2019-02-02T14:59:31.582Z,18.88
2019-02-02T15:01:57.769Z,18.83
2019-02-02T15:04:23.928Z,18.26
2019-02-02T15:06:53.251Z,18.21
2019-02-02T15:09:19.435Z,18.08
2019-02-02T15:11:45.590Z,17.61
2019-02-02T15:14:11.744Z,17.76
2019-02-02T15:16:37.936Z,18.06
2019-02-02T15:19:04.189Z,17.69
2019-02-02T15:21:33.410Z,17.78
2019-02-02T15:23:59.664Z,17.75
2019-02-02T15:26:25.824Z,17.43
2019-02-02T15:28:54.907Z,17.18
2019-02-02T15:31:21.111Z,17.64
2019-02-02T15:33:49.849Z,17.29
2019-02-02T15:36:16.187Z,17.51
2019-02-02T15:38:42.391Z,17.39
2019-02-02T15:41:08.667Z,17.10
2019-02-02T15:43:34.826Z,17.02
2019-02-02T15:46:01.142Z,17.20
2019-02-02T15:48:27.433Z,17.09
2019-02-02T15:50:53.591Z,16.78
2019-02-02T15:53:19.811Z,16.93
2019-02-02T15:55:45.965Z,17.00
2019-02-02T15:58:12.129Z,16.93
2019-02-02T16:00:38.326Z,16.86
2019-02-02T16:03:04.584Z,17.03
2019-02-02T16:05:31.646Z,16.71
2019-02-02T16:07:59.955Z,16.90
2019-02-02T16:10:28.210Z,17.05
2019-02-02T16:12:54.366Z,16.61
2019-02-02T16:15:20.581Z,16.71
2019-02-02T16:17:46.867Z,16.64
2019-02-02T16:20:25.413Z,16.57
2019-02-02T16:22:51.574Z,16.60
2019-02-02T16:25:17.824Z,16.46
2019-02-02T16:27:44.999Z,16.69
2019-02-02T16:30:14.560Z,16.48
2019-02-02T16:32:40.750Z,16.56
2019-02-02T16:35:09.485Z,16.50
2019-02-02T16:37:36.380Z,16.29
2019-02-02T16:40:06.492Z,16.51
2019-02-02T16:42:35.826Z,16.66
2019-02-02T16:45:00.999Z,16.41
2019-02-02T16:47:27.289Z,16.33
2019-02-02T16:49:53.836Z,16.54
2019-02-02T16:52:20.107Z,16.39
2019-02-02T16:54:46.371Z,16.33
2019-02-02T16:57:12.703Z,16.36
2019-02-02T16:59:38.871Z,16.40
2019-02-02T17:02:05.048Z,16.37
2019-02-02T17:04:31.267Z,16.51
2019-02-02T17:06:57.424Z,16.47
2019-02-02T17:09:23.588Z,16.67
2019-02-02T17:11:49.873Z,16.81
2019-02-02T17:14:17.943Z,16.60
2019-02-02T17:16:44.196Z,16.67
2019-02-02T17:19:10.498Z,16.77
2019-02-02T17:21:36.644Z,16.70
2019-02-02T17:24:03.130Z,16.36
2019-02-02T17:26:29.480Z,16.45
2019-02-02T17:28:55.755Z,16.59
2019-02-02T17:31:21.915Z,16.68
2019-02-02T17:33:48.102Z,16.81
2019-02-02T17:36:14.400Z,16.74
2019-02-02T17:38:40.573Z,16.91
2019-02-02T17:41:06.873Z,16.48
2019-02-02T17:43:33.024Z,16.83
2019-02-02T17:45:59.191Z,16.69
2019-02-02T17:48:25.376Z,16.52
2019-02-02T17:50:51.655Z,16.57
2019-02-02T17:53:17.928Z,16.42
2019-02-02T17:55:44.150Z,16.87
2019-02-02T17:58:13.241Z,16.63
2019-02-02T18:00:41.892Z,16.64
2019-02-02T18:03:08.124Z,16.29
2019-02-02T18:05:34.389Z,16.46
2019-02-02T18:08:00.644Z,16.18
2019-02-02T18:10:26.840Z,16.58
2019-02-02T18:12:53.003Z,16.49
2019-02-02T18:15:19.173Z,16.71
2019-02-02T18:17:45.422Z,16.61
2019-02-02T18:20:14.090Z,16.74
2019-02-02T18:22:40.280Z,16.44
2019-02-02T18:25:11.778Z,16.54
2019-02-02T18:27:38.090Z,16.63
2019-02-02T18:30:13.830Z,16.51
2019-02-02T18:32:39.991Z,16.68
2019-02-02T18:35:08.961Z,16.78
2019-02-02T18:37:35.166Z,16.37
2019-02-02T18:40:01.323Z,16.57
2019-02-02T18:42:27.482Z,16.23
2019-02-02T18:44:53.768Z,16.31
2019-02-02T18:47:21.035Z,16.84
2019-02-02T18:49:47.191Z,16.41
2019-02-02T18:52:13.404Z,16.81
2019-02-02T18:54:39.563Z,17.02
2019-02-02T18:57:05.737Z,16.78
2019-02-02T18:59:31.941Z,16.68
2019-02-02T19:01:58.103Z,16.76
2019-02-02T19:04:24.667Z,16.69
2019-02-02T19:06:50.866Z,16.60
2019-02-02T19:09:17.130Z,16.55
2019-02-02T19:11:43.296Z,17.05
2019-02-02T19:14:09.593Z,16.65
2019-02-02T19:16:35.781Z,16.98
2019-02-02T19:19:02.042Z,16.71
2019-02-02T19:21:28.251Z,16.46
2019-02-02T19:23:54.514Z,17.04
2019-02-02T19:26:20.776Z,16.44
2019-02-02T19:28:47.207Z,16.94
2019-02-02T19:31:13.490Z,16.86
2019-02-02T19:33:39.779Z,17.03
2019-02-02T19:36:05.972Z,16.73
2019-02-02T19:38:32.137Z,16.96
2019-02-02T19:40:58.392Z,16.94
2019-02-02T19:43:24.578Z,17.03
2019-02-02T19:45:53.537Z,16.92
2019-02-02T19:48:18.802Z,16.79
2019-02-02T19:50:45.584Z,16.60
2019-02-02T19:53:11.933Z,16.54
2019-02-02T19:55:38.129Z,16.53
2019-02-02T19:58:04.430Z,16.16
2019-02-02T20:00:32.607Z,16.20
2019-02-02T20:02:59.257Z,16.01
2019-02-02T20:05:28.788Z,16.16
2019-02-02T20:07:53.708Z,16.09
2019-02-02T20:10:19.869Z,15.91
2019-02-02T20:12:46.308Z,16.01
2019-02-02T20:15:15.097Z,15.94
2019-02-02T20:17:41.341Z,15.79
2019-02-02T20:20:11.356Z,15.78
2019-02-02T20:22:37.524Z,15.53
2019-02-02T20:25:07.402Z,15.82
2019-02-02T20:27:33.607Z,15.95
2019-02-02T20:29:59.957Z,15.93
2019-02-02T20:32:26.221Z,15.88
2019-02-02T20:34:52.409Z,15.72
2019-02-02T20:37:18.567Z,15.61
2019-02-02T20:39:44.839Z,15.71
2019-02-02T20:42:11.044Z,15.69
2019-02-02T20:44:37.308Z,15.74
2019-02-02T20:47:11.512Z,15.77
2019-02-02T20:49:37.708Z,15.63
2019-02-02T20:54:54.830Z,15.78
2019-02-02T20:57:21.127Z,15.65
2019-02-02T21:03:25.417Z,16.06
2019-02-02T21:05:52.781Z,15.81
2019-02-02T21:08:19.080Z,16.04
2019-02-02T21:10:45.323Z,15.92
2019-02-02T21:13:12.018Z,15.96
2019-02-02T21:15:38.184Z,15.56
2019-02-02T21:18:04.523Z,15.57
2019-02-02T21:20:31.166Z,15.75
2019-02-02T21:22:57.430Z,15.73
2019-02-02T21:25:23.854Z,15.87
2019-02-02T21:31:36.592Z,16.11
2019-02-02T21:34:03.153Z,16.25
2019-02-02T21:36:29.551Z,15.98
2019-02-02T21:38:55.745Z,16.27
2019-02-02T21:41:22.017Z,16.20
2019-02-02T21:43:48.301Z,16.21
2019-02-02T21:46:14.512Z,16.09
2019-02-02T21:48:40.786Z,16.08
2019-02-02T21:51:06.960Z,16.25
2019-02-02T22:01:32.408Z,16.46
2019-02-02T22:03:58.577Z,16.20
2019-02-02T22:06:24.735Z,16.16
2019-02-02T22:08:50.929Z,16.14
2019-02-02T22:11:17.195Z,15.94
2019-02-02T22:13:43.468Z,15.99
2019-02-02T22:16:09.671Z,15.93
2019-02-02T22:18:36.148Z,15.96
2019-02-02T22:21:02.411Z,16.07
2019-02-02T22:23:28.718Z,16.22
2019-02-02T22:25:54.882Z,16.02
2019-02-02T22:28:21.044Z,16.01
2019-02-02T22:30:47.240Z,16.06
2019-02-02T22:33:13.426Z,16.03
2019-02-02T22:35:39.910Z,15.73
2019-02-02T22:38:06.115Z,15.87
2019-02-02T22:40:32.271Z,16.11
2019-02-02T22:42:58.467Z,16.09
2019-02-02T22:45:24.646Z,16.22
2019-02-02T22:47:51.098Z,16.34
2019-02-02T22:50:19.474Z,16.23
2019-02-02T22:52:46.180Z,16.31
2019-02-02T22:55:14.335Z,16.25
2019-02-02T22:57:40.614Z,15.88
2019-02-02T23:00:24.505Z,16.00
2019-02-02T23:02:52.069Z,15.94
2019-02-02T23:05:28.065Z,15.92
2019-02-02T23:07:57.855Z,15.42
2019-02-02T23:10:33.813Z,15.32
2019-02-02T23:13:24.919Z,15.44
2019-02-02T23:15:54.950Z,15.52
2019-02-02T23:18:21.208Z,15.24
2019-02-02T23:20:47.385Z,15.13
2019-02-02T23:23:13.594Z,15.13
2019-02-02T23:25:40.167Z,14.96
2019-02-02T23:28:06.327Z,14.67
2019-02-02T23:30:32.532Z,14.60
2019-02-02T23:32:58.804Z,14.74
2019-02-02T23:35:25.134Z,14.68
2019-02-02T23:37:51.339Z,14.86
2019-02-02T23:40:17.513Z,15.06
2019-02-02T23:42:44.280Z,15.00
2019-02-02T23:45:10.595Z,15.05
2019-02-02T23:47:36.968Z,14.99
2019-02-02T23:50:08.470Z,15.00
2019-02-02T23:52:34.670Z,15.12
2019-02-02T23:55:00.838Z,15.26
2019-02-02T23:57:27.003Z,15.15
2019-02-02T23:59:53.412Z,15.11
